createdAt,value
2019-03-09T00:00:50.225Z,73.91
2019-03-09T00:01:50.008Z,73.91
2019-03-09T00:02:50.204Z,73.69
2019-03-09T00:03:50.450Z,73.69
2019-03-09T00:04:50.184Z,74.01
2019-03-09T00:05:50.190Z,74.2
2019-03-09T00:06:50.171Z,73.91
2019-03-09T00:07:49.931Z,74.29
2019-03-09T00:08:50.154Z,74.01
2019-03-09T00:09:50.153Z,75.43
2019-03-09T00:10:50.143Z,75.43
2019-03-09T00:11:50.059Z,74.58
2019-03-09T00:12:50.138Z,74.39
2019-03-09T00:13:49.883Z,74.1
2019-03-09T00:14:50.121Z,73.63
2019-03-09T00:15:50.118Z,73.72
2019-03-09T00:16:50.111Z,73.63
2019-03-09T00:17:50.102Z,73.72
2019-03-09T00:18:50.089Z,73.63
2019-03-09T00:19:50.147Z,73.53
2019-03-09T00:20:50.090Z,74.01
2019-03-09T00:21:50.069Z,74.48
2019-03-09T00:22:49.820Z,74.1
2019-03-09T00:23:50.062Z,73.53
2019-03-09T00:24:49.808Z,73.34
2019-03-09T00:25:50.043Z,73.34
2019-03-09T00:26:49.814Z,73.72
2019-03-09T00:27:50.029Z,74.01
2019-03-09T00:28:50.276Z,73.82
2019-03-09T00:29:49.776Z,73.72
2019-03-09T00:30:49.803Z,73.63
2019-03-09T00:31:50.011Z,73.06
2019-03-09T00:32:49.759Z,73.15
2019-03-09T00:33:49.999Z,73.15
2019-03-09T00:34:50.009Z,73.63
2019-03-09T00:35:49.982Z,73.72
2019-03-09T00:36:49.728Z,74.29
2019-03-09T00:37:49.738Z,74.39
2019-03-09T00:38:49.965Z,74.1
2019-03-09T00:39:50.022Z,74.2
2019-03-09T00:40:49.712Z,74.29
2019-03-09T00:41:49.955Z,74.29
2019-03-09T00:42:49.687Z,74.1
2019-03-09T00:43:49.705Z,74.2
2019-03-09T00:44:49.924Z,74.39
2019-03-09T00:45:50.230Z,74.39
2019-03-09T00:46:49.665Z,74.48
2019-03-09T00:47:49.916Z,74.29
2019-03-09T00:48:49.655Z,74.39
2019-03-09T00:49:49.919Z,74.39
2019-03-09T00:50:49.887Z,74.01
2019-03-09T00:51:49.891Z,74.58
2019-03-09T00:52:49.625Z,74.1
2019-03-09T00:53:49.768Z,74.77
2019-03-09T00:54:49.612Z,74.87
2019-03-09T00:55:49.854Z,74.77
2019-03-09T00:56:49.842Z,75.05
2019-03-09T00:57:49.851Z,75.34
2019-03-09T00:58:49.839Z,74.58
2019-03-09T00:59:49.573Z,74.48
2019-03-09T01:00:49.818Z,74.39
2019-03-09T01:01:49.584Z,74.67
2019-03-09T01:02:51.112Z,75.15
2019-03-09T01:03:49.787Z,74.96
2019-03-09T01:04:49.791Z,75.05
2019-03-09T01:05:49.781Z,74.29
2019-03-09T01:06:49.528Z,74.48
2019-03-09T01:07:49.522Z,74.58
2019-03-09T01:08:49.805Z,75.15
2019-03-09T01:09:49.751Z,75.05
2019-03-09T01:10:49.502Z,75.15
2019-03-09T01:11:49.739Z,75.05
2019-03-09T01:12:49.732Z,75.34
2019-03-09T01:13:49.516Z,75.05
2019-03-09T01:14:49.726Z,75.91
2019-03-09T01:15:49.470Z,75.81
2019-03-09T01:16:49.705Z,75.43
2019-03-09T01:17:49.708Z,74.67
2019-03-09T01:18:49.450Z,74.96
2019-03-09T01:19:49.696Z,75.15
2019-03-09T01:20:49.700Z,75.43
2019-03-09T01:21:49.720Z,75.15
2019-03-09T01:22:49.424Z,74.58
2019-03-09T01:23:49.674Z,74.58
2019-03-09T01:24:49.413Z,74.58
2019-03-09T01:25:49.662Z,74.58
2019-03-09T01:26:49.663Z,74.87
2019-03-09T01:27:49.652Z,75.34
2019-03-09T01:28:49.643Z,75.05
2019-03-09T01:29:49.670Z,75.05
2019-03-09T01:30:49.641Z,75.15
2019-03-09T01:31:49.369Z,74.96
2019-03-09T01:32:49.616Z,74.96
2019-03-09T01:33:49.358Z,74.39
2019-03-09T01:34:49.600Z,74.48
2019-03-09T01:35:49.343Z,75.05
2019-03-09T01:36:49.596Z,75.24
2019-03-09T01:37:49.571Z,75.24
2019-03-09T01:38:49.330Z,75.15
2019-03-09T01:39:49.561Z,74.87
2019-03-09T01:40:49.557Z,75.15
2019-03-09T01:41:49.553Z,75.62
2019-03-09T01:42:49.542Z,75.53
2019-03-09T01:43:49.289Z,75.43
2019-03-09T01:44:49.281Z,75.72
2019-03-09T01:45:49.539Z,76.57
2019-03-09T01:46:49.520Z,76.1
2019-03-09T01:47:49.510Z,76.2
2019-03-09T01:48:49.510Z,76.29
2019-03-09T01:49:49.502Z,76.39
2019-03-09T01:50:49.504Z,76.2
2019-03-09T01:51:49.487Z,76.39
2019-03-09T01:52:49.497Z,76.1
2019-03-09T01:53:49.468Z,76.96
2019-03-09T01:54:49.467Z,76.67
2019-03-09T01:55:49.464Z,77.43
2019-03-09T01:56:49.215Z,77.62
2019-03-09T01:57:49.452Z,77.43
2019-03-09T01:58:49.196Z,76.96
2019-03-09T01:59:49.436Z,76.96
2019-03-09T02:00:49.178Z,76.86
2019-03-09T02:01:49.420Z,77.72
2019-03-09T02:02:49.413Z,77.53
2019-03-09T02:03:50.000Z,77.81
2019-03-09T02:04:49.405Z,78.29
2019-03-09T02:05:49.151Z,77.91
2019-03-09T02:06:49.417Z,78.29
2019-03-09T02:07:49.403Z,78.57
2019-03-09T02:08:49.381Z,78.1
2019-03-09T02:09:49.130Z,78.86
2019-03-09T02:10:49.132Z,79.43
2019-03-09T02:11:49.407Z,79.52
2019-03-09T02:12:49.360Z,79.52
2019-03-09T02:13:49.356Z,79.52
2019-03-09T02:14:49.090Z,78.86
2019-03-09T02:15:49.355Z,79.24
2019-03-09T02:16:49.360Z,79.62
2019-03-09T02:17:49.324Z,79.33
2019-03-09T02:18:49.328Z,79.72
2019-03-09T02:19:49.080Z,79.52
2019-03-09T02:20:49.304Z,79.52
2019-03-09T02:21:49.292Z,79.81
2019-03-09T02:22:49.299Z,79.43
2019-03-09T02:23:49.032Z,79.81
2019-03-09T02:24:49.027Z,79.91
2019-03-09T02:25:49.271Z,79.72
2019-03-09T02:26:49.257Z,79.72
2019-03-09T02:27:49.256Z,79.52
2019-03-09T02:28:49.249Z,79.81
2019-03-09T02:29:49.005Z,80.1
2019-03-09T02:30:49.237Z,80.38
2019-03-09T02:31:49.240Z,80
2019-03-09T02:32:49.220Z,80.57
2019-03-09T02:33:49.226Z,80.66
2019-03-09T02:34:49.215Z,81.14
2019-03-09T02:35:49.204Z,80.86
2019-03-09T02:36:49.200Z,81.14
2019-03-09T02:37:48.960Z,81.71
2019-03-09T02:38:48.962Z,81.71
2019-03-09T02:39:49.197Z,82.67
2019-03-09T02:40:48.929Z,82.38
2019-03-09T02:41:49.184Z,81.9
2019-03-09T02:42:49.177Z,82.48
2019-03-09T02:43:49.155Z,82.48
2019-03-09T02:44:49.154Z,82.09
2019-03-09T02:45:48.920Z,82.19
2019-03-09T02:46:49.138Z,82.38
2019-03-09T02:47:49.164Z,82.48
2019-03-09T02:48:49.151Z,82.28
2019-03-09T02:49:49.117Z,83.04
2019-03-09T02:50:49.114Z,82.86
2019-03-09T02:51:49.111Z,83.04
2019-03-09T02:52:49.099Z,82.95
2019-03-09T02:53:48.866Z,83.23
2019-03-09T02:54:49.089Z,83.42
2019-03-09T02:55:49.089Z,83.23
2019-03-09T02:56:49.073Z,83.23
2019-03-09T02:57:49.074Z,83.04
2019-03-09T02:58:49.063Z,83.52
2019-03-09T02:59:49.056Z,83.14
2019-03-09T03:00:49.045Z,83.33
2019-03-09T03:01:49.047Z,83.42
2019-03-09T03:02:49.052Z,82.95
2019-03-09T03:03:49.031Z,83.14
2019-03-09T03:04:49.025Z,83.23
2019-03-09T03:05:49.028Z,82.76
2019-03-09T03:06:49.028Z,83.04
2019-03-09T03:07:48.755Z,82.48
2019-03-09T03:08:48.991Z,83.23
2019-03-09T03:09:48.995Z,82.95
2019-03-09T03:10:49.014Z,82.67
2019-03-09T03:11:48.990Z,82.57
2019-03-09T03:12:48.967Z,82.95
2019-03-09T03:13:48.962Z,83.23
2019-03-09T03:14:48.962Z,82.86
2019-03-09T03:15:48.964Z,83.14
2019-03-09T03:16:48.951Z,83.23
2019-03-09T03:17:48.938Z,83.04
2019-03-09T03:18:48.684Z,82.86
2019-03-09T03:19:48.931Z,83.04
2019-03-09T03:20:48.921Z,82.57
2019-03-09T03:21:48.928Z,82.19
2019-03-09T03:22:48.917Z,82.57
2019-03-09T03:23:48.654Z,83.04
2019-03-09T03:24:48.897Z,82.57
2019-03-09T03:25:48.896Z,82.38
2019-03-09T03:26:48.891Z,83.14
2019-03-09T03:27:48.879Z,82.38
2019-03-09T03:28:48.877Z,82.38
2019-03-09T03:29:48.881Z,82.76
2019-03-09T03:30:48.710Z,82.09
2019-03-09T03:31:48.876Z,82.48
2019-03-09T03:32:48.895Z,82.38
2019-03-09T03:33:48.868Z,82.38
2019-03-09T03:34:48.895Z,82.38
2019-03-09T03:35:48.838Z,82.38
2019-03-09T03:36:48.851Z,82.61
2019-03-09T03:37:48.815Z,82.7
2019-03-09T03:38:48.829Z,82.23
2019-03-09T03:39:48.549Z,82.04
2019-03-09T03:40:48.801Z,82.7
2019-03-09T03:41:48.543Z,82.42
2019-03-09T03:42:48.799Z,81.56
2019-03-09T03:43:48.780Z,81.37
2019-03-09T03:44:48.793Z,81.28
2019-03-09T03:45:48.849Z,81.66
2019-03-09T03:46:48.844Z,81.56
2019-03-09T03:47:48.777Z,81.05
2019-03-09T03:48:48.749Z,81.14
2019-03-09T03:49:48.742Z,81.33
2019-03-09T03:50:48.490Z,81.09
2019-03-09T03:51:48.734Z,81.37
2019-03-09T03:52:48.741Z,81.66
2019-03-09T03:53:48.715Z,81.09
2019-03-09T03:54:48.813Z,81.37
2019-03-09T03:55:48.704Z,81.76
2019-03-09T03:56:50.007Z,82.9
2019-03-09T03:57:48.698Z,82.23
2019-03-09T03:58:48.430Z,82.42
2019-03-09T03:59:48.671Z,81.85
2019-03-09T04:00:48.425Z,81.76
2019-03-09T04:01:48.441Z,81.18
2019-03-09T04:02:48.673Z,81.56
2019-03-09T04:03:48.667Z,81.66
2019-03-09T04:04:48.652Z,82.23
2019-03-09T04:05:48.637Z,82.7
2019-03-09T04:06:48.631Z,82.42
2019-03-09T04:07:48.625Z,82.19
2019-03-09T04:08:48.633Z,82.32
2019-03-09T04:09:48.633Z,81.85
2019-03-09T04:10:48.614Z,81.56
2019-03-09T04:11:48.608Z,81.56
2019-03-09T04:12:48.607Z,81.76
2019-03-09T04:13:48.592Z,81.71
2019-03-09T04:14:48.345Z,81.95
2019-03-09T04:15:48.583Z,82.8
2019-03-09T04:16:48.587Z,81.85
2019-03-09T04:17:48.566Z,81.95
2019-03-09T04:18:48.564Z,81.76
2019-03-09T04:19:48.554Z,81.76
2019-03-09T04:20:48.312Z,81.76
2019-03-09T04:21:48.557Z,81.24
2019-03-09T04:22:48.305Z,81.66
2019-03-09T04:23:48.530Z,81.56
2019-03-09T04:24:48.525Z,81.28
2019-03-09T04:25:48.277Z,82.04
2019-03-09T04:26:48.527Z,82.23
2019-03-09T04:27:48.579Z,81.18
2019-03-09T04:28:48.506Z,80.71
2019-03-09T04:29:48.504Z,79.66
2019-03-09T04:30:48.485Z,79.57
2019-03-09T04:31:48.494Z,78.8
2019-03-09T04:32:48.511Z,78.04
2019-03-09T04:33:48.220Z,78.04
2019-03-09T04:34:48.467Z,77.56
2019-03-09T04:35:48.233Z,77.76
2019-03-09T04:36:48.449Z,77.76
2019-03-09T04:37:48.445Z,78.14
2019-03-09T04:38:48.196Z,78.23
2019-03-09T04:39:48.432Z,77.47
2019-03-09T04:40:48.436Z,77.37
2019-03-09T04:41:48.415Z,78.04
2019-03-09T04:42:48.418Z,77.76
2019-03-09T04:43:48.412Z,77
2019-03-09T04:44:48.404Z,76.52
2019-03-09T04:45:48.146Z,76.52
2019-03-09T04:46:48.394Z,77
2019-03-09T04:47:48.400Z,76.23
2019-03-09T04:48:48.378Z,75.67
2019-03-09T04:49:48.363Z,75.47
2019-03-09T04:50:48.366Z,75.47
2019-03-09T04:51:48.357Z,75.09
2019-03-09T04:52:48.150Z,74.62
2019-03-09T04:53:48.091Z,74.94
2019-03-09T04:54:48.340Z,75.09
2019-03-09T04:55:48.084Z,75.09
2019-03-09T04:56:48.323Z,76.46
2019-03-09T04:57:48.312Z,75.23
2019-03-09T04:58:48.357Z,74.9
2019-03-09T04:59:48.308Z,74.84
2019-03-09T05:00:48.052Z,74.9
2019-03-09T05:01:48.053Z,75.67
2019-03-09T05:02:48.308Z,76.33
2019-03-09T05:03:48.036Z,77.13
2019-03-09T05:04:48.430Z,79.09
2019-03-09T05:05:48.276Z,77.51
2019-03-09T05:06:48.279Z,77.7
2019-03-09T05:07:48.270Z,76.27
2019-03-09T05:08:48.011Z,76.84
2019-03-09T05:09:48.240Z,80.08
2019-03-09T05:10:48.278Z,79.22
2019-03-09T05:11:48.231Z,77.42
2019-03-09T05:12:47.987Z,76.81
2019-03-09T05:13:47.966Z,77.32
2019-03-09T05:14:47.975Z,78.33
2019-03-09T05:15:48.225Z,79.09
2019-03-09T05:16:47.965Z,78.33
2019-03-09T05:17:47.960Z,78.8
2019-03-09T05:18:48.186Z,79.66
2019-03-09T05:19:48.179Z,80.04
2019-03-09T05:20:48.178Z,80.33
2019-03-09T05:21:47.924Z,80.04
2019-03-09T05:22:48.171Z,79.66
2019-03-09T05:23:47.923Z,80.13
2019-03-09T05:24:48.164Z,80.04
2019-03-09T05:25:47.910Z,80.71
2019-03-09T05:26:47.916Z,80.8
2019-03-09T05:27:47.913Z,80.99
2019-03-09T05:28:48.133Z,81.85
2019-03-09T05:29:47.873Z,81.85
2019-03-09T05:30:47.876Z,81.47
2019-03-09T05:31:48.116Z,81.85
2019-03-09T05:32:47.862Z,82.42
2019-03-09T05:33:47.871Z,82.32
2019-03-09T05:34:47.867Z,82.32
2019-03-09T05:35:48.087Z,82.42
2019-03-09T05:36:48.075Z,83.18
2019-03-09T05:37:47.828Z,83.65
2019-03-09T05:38:48.080Z,84.13
2019-03-09T05:39:48.057Z,84.89
2019-03-09T05:40:47.806Z,86.32
2019-03-09T05:41:48.043Z,87.75
2019-03-09T05:42:47.788Z,86.04
2019-03-09T05:43:48.039Z,86.8
2019-03-09T05:44:48.042Z,87.27
2019-03-09T05:45:48.022Z,88.09
2019-03-09T05:46:48.014Z,87.9
2019-03-09T05:47:48.018Z,87.99
2019-03-09T05:48:47.997Z,87.9
2019-03-09T05:49:47.990Z,88.28
2019-03-09T05:50:47.987Z,88.94
2019-03-09T05:51:47.981Z,88.85
2019-03-09T05:52:47.724Z,88.94
2019-03-09T05:53:47.975Z,89.23
2019-03-09T05:54:47.711Z,89.51
2019-03-09T05:55:47.959Z,89.04
2019-03-09T05:56:47.944Z,89.04
2019-03-09T05:57:47.696Z,90.47
2019-03-09T05:58:47.931Z,90.28
2019-03-09T05:59:47.948Z,89.61
2019-03-09T06:00:47.667Z,89.7
2019-03-09T06:01:47.662Z,90.37
2019-03-09T06:02:47.907Z,90.56
2019-03-09T06:03:47.900Z,90.56
2019-03-09T06:04:47.666Z,90.56
2019-03-09T06:05:47.636Z,91.13
2019-03-09T06:06:47.883Z,90.47
2019-03-09T06:07:47.877Z,90.56
2019-03-09T06:08:47.609Z,90.66
2019-03-09T06:09:47.856Z,91.8
2019-03-09T06:10:47.859Z,91.61
2019-03-09T06:11:47.609Z,91.61
2019-03-09T06:12:47.583Z,91.7
2019-03-09T06:13:47.829Z,90.84
2019-03-09T06:14:47.828Z,91.42
2019-03-09T06:15:47.822Z,91.7
2019-03-09T06:16:47.562Z,91.51
2019-03-09T06:17:47.814Z,91.99
2019-03-09T06:18:47.801Z,91.8
2019-03-09T06:19:47.540Z,91.89
2019-03-09T06:20:47.534Z,92.46
2019-03-09T06:21:47.530Z,92.75
2019-03-09T06:22:47.830Z,92.46
2019-03-09T06:23:47.858Z,92.65
2019-03-09T06:24:47.756Z,92.75
2019-03-09T06:25:47.507Z,93.23
2019-03-09T06:26:47.488Z,93.04
2019-03-09T06:27:47.487Z,93.23
2019-03-09T06:28:47.734Z,94.08
2019-03-09T06:29:47.719Z,93.89
2019-03-09T06:30:47.461Z,93.32
2019-03-09T06:31:48.320Z,93.23
2019-03-09T06:32:47.700Z,93.23
2019-03-09T06:33:47.689Z,93.89
2019-03-09T06:34:47.697Z,93.89
2019-03-09T06:35:47.460Z,93.6
2019-03-09T06:36:47.425Z,94.08
2019-03-09T06:37:47.672Z,93.41
2019-03-09T06:38:47.658Z,93.51
2019-03-09T06:39:47.645Z,93.32
2019-03-09T06:40:47.647Z,93.32
2019-03-09T06:41:47.635Z,93.13
2019-03-09T06:42:47.631Z,93.13
2019-03-09T06:43:47.638Z,92.84
2019-03-09T06:44:47.617Z,92.36
2019-03-09T06:45:47.370Z,92.56
2019-03-09T06:46:47.601Z,94.08
2019-03-09T06:47:47.607Z,93.89
2019-03-09T06:48:47.342Z,94.27
2019-03-09T06:49:47.586Z,93.23
2019-03-09T06:50:47.593Z,93.04
2019-03-09T06:51:47.626Z,93.04
2019-03-09T06:52:47.323Z,92.08
2019-03-09T06:53:47.574Z,91.65
2019-03-09T06:54:47.307Z,91.22
2019-03-09T06:55:47.302Z,91.37
2019-03-09T06:56:47.531Z,91.75
2019-03-09T06:57:47.282Z,91.32
2019-03-09T06:58:47.529Z,91.08
2019-03-09T06:59:47.289Z,90.42
2019-03-09T07:00:47.625Z,90.42
2019-03-09T07:01:47.514Z,91.37
2019-03-09T07:02:47.521Z,91.08
2019-03-09T07:03:47.495Z,91.37
2019-03-09T07:04:47.256Z,91.17
2019-03-09T07:05:48.585Z,91.27
2019-03-09T07:06:47.476Z,91.84
2019-03-09T07:07:47.469Z,91.84
2019-03-09T07:08:47.506Z,91.27
2019-03-09T07:09:47.466Z,90.61
2019-03-09T07:10:47.472Z,91.08
2019-03-09T07:11:47.447Z,91.75
2019-03-09T07:12:47.449Z,91.27
2019-03-09T07:13:54.845Z,90.61
2019-03-09T07:14:47.180Z,90.7
2019-03-09T07:15:47.427Z,91.08
2019-03-09T07:16:47.165Z,90.8
2019-03-09T07:17:47.159Z,90.42
2019-03-09T07:18:47.404Z,90.32
2019-03-09T07:19:47.405Z,89.94
2019-03-09T07:20:47.142Z,90.03
2019-03-09T07:21:47.386Z,90.42
2019-03-09T07:22:47.483Z,90.03
2019-03-09T07:23:47.375Z,89.94
2019-03-09T07:24:47.119Z,89.37
2019-03-09T07:25:47.372Z,89.84
2019-03-09T07:26:47.368Z,89.37
2019-03-09T07:27:47.345Z,88.99
2019-03-09T07:28:47.131Z,89.18
2019-03-09T07:29:47.354Z,89.56
2019-03-09T07:30:47.341Z,89.18
2019-03-09T07:31:47.323Z,88.65
2019-03-09T07:32:47.327Z,89.03
2019-03-09T07:33:47.318Z,88.08
2019-03-09T07:34:47.064Z,87.6
2019-03-09T07:35:47.305Z,86.84
2019-03-09T07:36:47.059Z,86.08
2019-03-09T07:37:47.513Z,86.32
2019-03-09T07:38:47.296Z,85.55
2019-03-09T07:39:47.075Z,85.17
2019-03-09T07:40:47.277Z,84.98
2019-03-09T07:41:47.279Z,85.84
2019-03-09T07:42:47.271Z,85.17
2019-03-09T07:43:47.267Z,84.98
2019-03-09T07:44:47.249Z,85.27
2019-03-09T07:45:47.249Z,85.74
2019-03-09T07:46:47.247Z,84.69
2019-03-09T07:47:46.996Z,85.08
2019-03-09T07:48:47.231Z,85.27
2019-03-09T07:49:46.987Z,84.98
2019-03-09T07:50:47.224Z,84.98
2019-03-09T07:51:47.221Z,85.55
2019-03-09T07:52:47.218Z,86.41
2019-03-09T07:53:46.962Z,85.55
2019-03-09T07:54:47.210Z,85.46
2019-03-09T07:55:47.208Z,86.12
2019-03-09T07:56:47.210Z,85.55
2019-03-09T07:57:47.204Z,86.12
2019-03-09T07:58:46.940Z,86.12
2019-03-09T07:59:47.182Z,85.27
2019-03-09T08:00:47.182Z,85.08
2019-03-09T08:01:47.172Z,85.74
2019-03-09T08:02:46.924Z,86.6
2019-03-09T08:03:47.169Z,86.03
2019-03-09T08:04:46.908Z,86.12
2019-03-09T08:05:47.147Z,86.03
2019-03-09T08:06:47.144Z,85.64
2019-03-09T08:07:46.911Z,84.79
2019-03-09T08:08:46.912Z,84.98
2019-03-09T08:09:46.883Z,86.22
2019-03-09T08:10:46.881Z,86.03
2019-03-09T08:11:46.883Z,85.27
2019-03-09T08:12:46.896Z,85.17
2019-03-09T08:13:47.122Z,85.36
2019-03-09T08:14:47.121Z,85.55
2019-03-09T08:15:47.122Z,85.74
2019-03-09T08:16:47.119Z,85.64
2019-03-09T08:17:47.114Z,86.51
2019-03-09T08:18:47.781Z,85.17
2019-03-09T08:19:47.107Z,84.69
2019-03-09T08:20:47.104Z,83.84
2019-03-09T08:21:47.123Z,83.65
2019-03-09T08:22:47.080Z,84.12
2019-03-09T08:23:47.074Z,84.31
2019-03-09T08:24:47.078Z,84.41
2019-03-09T08:25:46.835Z,84.26
2019-03-09T08:26:46.842Z,83.59
2019-03-09T08:27:47.054Z,83.4
2019-03-09T08:28:47.077Z,83.31
2019-03-09T08:29:47.058Z,82.92
2019-03-09T08:30:46.803Z,83.4
2019-03-09T08:31:47.026Z,82.92
2019-03-09T08:32:47.060Z,83.21
2019-03-09T08:33:46.808Z,83.59
2019-03-09T08:34:46.804Z,83.69
2019-03-09T08:35:47.028Z,82.92
2019-03-09T08:36:46.766Z,82.83
2019-03-09T08:37:47.006Z,82.73
2019-03-09T08:38:47.030Z,82.35
2019-03-09T08:39:47.015Z,83.31
2019-03-09T08:40:46.993Z,82.73
2019-03-09T08:41:47.059Z,82.45
2019-03-09T08:42:47.036Z,82.35
2019-03-09T08:43:47.014Z,82.54
2019-03-09T08:44:46.731Z,81.12
2019-03-09T08:45:46.999Z,81.49
2019-03-09T08:46:46.723Z,81.3
2019-03-09T08:47:54.791Z,81.97
2019-03-09T08:48:46.960Z,81.49
2019-03-09T08:49:46.957Z,81.44
2019-03-09T08:50:46.711Z,81.63
2019-03-09T08:51:46.983Z,80.58
2019-03-09T08:52:46.946Z,80.77
2019-03-09T08:53:46.760Z,80.49
2019-03-09T08:54:46.962Z,79.78
2019-03-09T08:55:46.724Z,81.06
2019-03-09T08:56:46.976Z,80.16
2019-03-09T08:57:46.990Z,80.26
2019-03-09T08:58:46.938Z,80.73
2019-03-09T08:59:46.955Z,81.02
2019-03-09T09:00:46.944Z,81.4
2019-03-09T09:01:46.933Z,82.35
2019-03-09T09:02:46.906Z,82.54
2019-03-09T09:03:46.654Z,82.07
2019-03-09T09:04:46.648Z,81.68
2019-03-09T09:05:46.898Z,82.45
2019-03-09T09:06:46.637Z,81.78
2019-03-09T09:07:46.889Z,81.49
2019-03-09T09:08:46.900Z,81.3
2019-03-09T09:09:46.631Z,81.3
2019-03-09T09:10:46.871Z,81.21
2019-03-09T09:11:47.671Z,80.83
2019-03-09T09:12:48.056Z,81.49
2019-03-09T09:13:46.611Z,81.49
2019-03-09T09:14:46.857Z,81.4
2019-03-09T09:15:46.866Z,82.45
2019-03-09T09:16:46.845Z,80.83
2019-03-09T09:17:46.844Z,80.64
2019-03-09T09:18:46.624Z,80.73
2019-03-09T09:19:46.836Z,81.4
2019-03-09T09:20:46.840Z,81.88
2019-03-09T09:21:46.593Z,82.45
2019-03-09T09:22:46.837Z,82.35
2019-03-09T09:23:46.820Z,81.78
2019-03-09T09:24:46.809Z,81.12
2019-03-09T09:25:46.820Z,81.3
2019-03-09T09:26:46.809Z,81.4
2019-03-09T09:27:46.803Z,81.78
2019-03-09T09:28:46.792Z,82.54
2019-03-09T09:29:46.798Z,81.49
2019-03-09T09:30:46.785Z,81.35
2019-03-09T09:31:46.786Z,81.82
2019-03-09T09:32:46.787Z,80.96
2019-03-09T09:33:46.770Z,79.63
2019-03-09T09:34:46.775Z,79.82
2019-03-09T09:35:46.771Z,79.44
2019-03-09T09:36:46.507Z,78.96
2019-03-09T09:37:46.761Z,79.53
2019-03-09T09:38:46.786Z,80.11
2019-03-09T09:39:46.815Z,80.39
2019-03-09T09:40:46.739Z,79.72
2019-03-09T09:41:46.488Z,79.06
2019-03-09T09:42:46.483Z,78.49
2019-03-09T09:43:46.734Z,78.2
2019-03-09T09:44:46.487Z,77.47
2019-03-09T09:45:46.742Z,77.76
2019-03-09T09:46:46.733Z,78.49
2019-03-09T09:47:46.469Z,77.62
2019-03-09T09:48:46.466Z,77.91
2019-03-09T09:49:46.720Z,78.01
2019-03-09T09:50:46.713Z,78.39
2019-03-09T09:51:46.724Z,78.39
2019-03-09T09:52:46.703Z,78.96
2019-03-09T09:53:46.700Z,78.3
2019-03-09T09:54:46.699Z,78.1
2019-03-09T09:55:46.693Z,78.49
2019-03-09T09:56:46.686Z,79.15
2019-03-09T09:57:46.444Z,78.1
2019-03-09T09:58:46.674Z,78.58
2019-03-09T09:59:46.666Z,79.06
2019-03-09T10:00:46.418Z,78.3
2019-03-09T10:01:46.433Z,78.3
2019-03-09T10:02:46.661Z,78.58
2019-03-09T10:03:46.659Z,78.1
2019-03-09T10:04:46.659Z,78.49
2019-03-09T10:05:46.656Z,79.15
2019-03-09T10:06:46.660Z,79.63
2019-03-09T10:07:46.421Z,78.49
2019-03-09T10:08:46.667Z,78.86
2019-03-09T10:09:46.630Z,78.86
2019-03-09T10:10:46.636Z,78.96
2019-03-09T10:11:46.676Z,79.35
2019-03-09T10:12:46.686Z,79.25
2019-03-09T10:13:46.619Z,79.91
2019-03-09T10:14:46.619Z,79.15
2019-03-09T10:15:46.363Z,80.01
2019-03-09T10:16:46.363Z,78.39
2019-03-09T10:17:46.608Z,78.3
2019-03-09T10:18:46.353Z,79.53
2019-03-09T10:19:46.354Z,79.82
2019-03-09T10:20:47.524Z,79.44
2019-03-09T10:21:46.590Z,79.35
2019-03-09T10:22:46.593Z,79.53
2019-03-09T10:23:46.354Z,79.63
2019-03-09T10:24:46.329Z,79.72
2019-03-09T10:25:46.336Z,79.53
2019-03-09T10:26:46.572Z,79.91
2019-03-09T10:27:46.570Z,80.3
2019-03-09T10:28:46.559Z,80.2
2019-03-09T10:29:46.559Z,79.91
2019-03-09T10:30:46.558Z,79.44
2019-03-09T10:31:46.567Z,79.06
2019-03-09T10:32:46.545Z,79.72
2019-03-09T10:33:46.553Z,78.67
2019-03-09T10:34:46.540Z,79.06
2019-03-09T10:35:46.304Z,79.15
2019-03-09T10:36:46.293Z,79.15
2019-03-09T10:37:46.530Z,79.63
2019-03-09T10:38:46.578Z,79.44
2019-03-09T10:39:46.280Z,78.96
2019-03-09T10:40:46.289Z,78.2
2019-03-09T10:41:46.516Z,78.3
2019-03-09T10:42:46.523Z,78.58
2019-03-09T10:43:46.260Z,78.49
2019-03-09T10:44:46.500Z,78.81
2019-03-09T10:45:46.510Z,78.52
2019-03-09T10:46:46.499Z,78.23
2019-03-09T10:47:46.522Z,78.86
2019-03-09T10:48:46.502Z,78.39
2019-03-09T10:49:46.488Z,78.62
2019-03-09T10:50:46.239Z,78.91
2019-03-09T10:51:46.231Z,79.72
2019-03-09T10:52:46.483Z,78.33
2019-03-09T10:53:46.488Z,79.06
2019-03-09T10:54:46.229Z,78.62
2019-03-09T10:55:46.237Z,78.91
2019-03-09T10:56:46.475Z,78.72
2019-03-09T10:57:46.468Z,79.44
2019-03-09T10:58:46.219Z,79.48
2019-03-09T10:59:46.458Z,79.19
2019-03-09T11:00:46.465Z,78.91
2019-03-09T11:01:46.441Z,79
2019-03-09T11:02:46.204Z,79.06
2019-03-09T11:03:46.195Z,79
2019-03-09T11:04:46.435Z,78.52
2019-03-09T11:05:46.444Z,78.58
2019-03-09T11:06:46.980Z,79.63
2019-03-09T11:07:46.421Z,79.53
2019-03-09T11:08:46.424Z,79.35
2019-03-09T11:09:46.779Z,79.72
2019-03-09T11:10:46.414Z,79.72
2019-03-09T11:11:46.423Z,80.58
2019-03-09T11:12:46.401Z,79.63
2019-03-09T11:13:54.063Z,78.77
2019-03-09T11:14:46.402Z,78.49
2019-03-09T11:15:46.403Z,79.06
2019-03-09T11:16:46.168Z,79.35
2019-03-09T11:17:46.154Z,79.15
2019-03-09T11:18:46.156Z,78.49
2019-03-09T11:19:46.128Z,77.91
2019-03-09T11:20:46.376Z,77.91
2019-03-09T11:21:46.125Z,78.39
2019-03-09T11:22:46.191Z,78.67
2019-03-09T11:23:46.564Z,78.49
2019-03-09T11:24:46.357Z,78.2
2019-03-09T11:25:46.360Z,78.39
2019-03-09T11:26:46.362Z,78.39
2019-03-09T11:27:46.364Z,78.67
2019-03-09T11:28:46.342Z,78.96
2019-03-09T11:29:46.334Z,79
2019-03-09T11:30:46.093Z,79.15
2019-03-09T11:31:46.094Z,78.14
2019-03-09T11:32:46.333Z,78.05
2019-03-09T11:33:46.078Z,77.67
2019-03-09T11:34:46.317Z,78.52
2019-03-09T11:35:46.333Z,77.86
2019-03-09T11:36:46.316Z,77.53
2019-03-09T11:37:46.306Z,77.82
2019-03-09T11:38:46.055Z,78.23
2019-03-09T11:39:46.054Z,78.2
2019-03-09T11:40:56.540Z,78.49
2019-03-09T11:41:46.057Z,78.49
2019-03-09T11:42:46.304Z,78.3
2019-03-09T11:43:46.286Z,78.33
2019-03-09T11:44:46.280Z,78.39
2019-03-09T11:45:46.046Z,78.23
2019-03-09T11:46:46.277Z,78.72
2019-03-09T11:47:46.023Z,77.86
2019-03-09T11:48:46.248Z,77.47
2019-03-09T11:49:46.021Z,76.33
2019-03-09T11:50:46.257Z,77.67
2019-03-09T11:51:46.015Z,77.76
2019-03-09T11:52:46.014Z,77.47
2019-03-09T11:53:46.254Z,77.47
2019-03-09T11:54:46.271Z,77.57
2019-03-09T11:55:46.253Z,77.38
2019-03-09T11:56:46.256Z,77.57
2019-03-09T11:57:46.246Z,77.09
2019-03-09T11:58:46.235Z,77
2019-03-09T11:59:45.982Z,76.81
2019-03-09T12:00:46.235Z,76.42
2019-03-09T12:01:46.258Z,76.33
2019-03-09T12:02:46.225Z,76.42
2019-03-09T12:03:47.321Z,76.52
2019-03-09T12:04:49.561Z,76.81
2019-03-09T12:05:45.966Z,76.52
2019-03-09T12:06:46.204Z,76.71
2019-03-09T12:07:45.964Z,77.57
2019-03-09T12:08:46.211Z,77.95
2019-03-09T12:09:46.201Z,77.76
2019-03-09T12:10:45.950Z,77.67
2019-03-09T12:11:46.195Z,77.38
2019-03-09T12:12:46.182Z,77.82
2019-03-09T12:13:46.195Z,77.91
2019-03-09T12:14:46.174Z,78.33
2019-03-09T12:15:46.186Z,78.1
2019-03-09T12:16:46.183Z,77.67
2019-03-09T12:17:45.939Z,77.86
2019-03-09T12:18:46.179Z,77.72
2019-03-09T12:19:46.179Z,77.28
2019-03-09T12:20:46.178Z,77.91
2019-03-09T12:21:46.173Z,78.1
2019-03-09T12:22:46.152Z,78.14
2019-03-09T12:23:45.922Z,79.15
2019-03-09T12:24:46.145Z,78.96
2019-03-09T12:25:46.139Z,78.77
2019-03-09T12:26:46.134Z,78.49
2019-03-09T12:27:46.132Z,78.67
2019-03-09T12:28:46.127Z,78.72
2019-03-09T12:29:45.876Z,79.1
2019-03-09T12:30:46.144Z,78.62
2019-03-09T12:31:46.125Z,78.52
2019-03-09T12:32:46.116Z,79
2019-03-09T12:33:45.875Z,78.81
2019-03-09T12:34:46.121Z,79.1
2019-03-09T12:35:46.707Z,78.91
2019-03-09T12:36:46.178Z,78.52
2019-03-09T12:37:46.109Z,78.43
2019-03-09T12:38:46.091Z,77.91
2019-03-09T12:39:45.835Z,77.82
2019-03-09T12:40:46.101Z,77.86
2019-03-09T12:41:46.083Z,77.67
2019-03-09T12:42:46.072Z,77.76
2019-03-09T12:43:45.833Z,77.86
2019-03-09T12:44:45.814Z,78.2
2019-03-09T12:45:46.086Z,78.43
2019-03-09T12:46:46.076Z,78.52
2019-03-09T12:47:46.044Z,77.86
2019-03-09T12:48:46.078Z,77.47
2019-03-09T12:49:45.805Z,77.67
2019-03-09T12:50:46.039Z,78.72
2019-03-09T12:51:46.035Z,79.1
2019-03-09T12:52:45.782Z,77.95
2019-03-09T12:53:46.035Z,78.05
2019-03-09T12:54:46.026Z,77.19
2019-03-09T12:55:45.868Z,77.76